Huvudsida
METAR-TAF:

METAR-TAF

Flygplatser :

Al Najafflygplats

Najaf, Irak

latitud: 31-59-23N, longitud: 44-24-15E, höjd: 31 m

Aktuellt väderrapport

Denna rapport gjordes för 28 minuter sedan, klockan 08:00 UTC
Vind 16 kt från syd/sydost
Temperatur 22°C
Fuktighet 35%
Tryck 1017 hPa
Sikt: 8000 m
Spridda moln på en höjd av 4000 ft

METAR: ORNI 220800Z 15016KT 8000 SCT040 22/06 Q1017 NOSIG

Tid: 11:28 (08:28 UTC)

Väderprognos

Denna rapport gjordes för 4 timmar och 28 minuter sedan, klockan 04:00 UTC
Prognos gäller från 22 kl. 06 UTC till 23 kl. 06 UTC
Vind 10 kt från ost/sydost
Sikt: 8000 m
Blir
från 22 kl. 13 UTC till 22 kl. 15 UTC
Vind 8 kt från sydväst

TAF: ORNI 220400Z 2206/2306 12010KT 8000 NSC BECMG 2213/2215 22008KT

Aktuella väderrapporter och prognoser från 4000 flygplatser (METAR- och TAF-rapporter).

De tillgängliga stationerna syns som gula och röda prickar på kartan.

För musen över prickarna för att se namnen på stationerna.

Klicka sedan för att få väderrapporter och prognoser.

För att ändra kartan: Klicka på de gröna knapparna med ett svart kors på för att zooma in; den gröna knappen med ett streck på för att zooma ut; eller på de gröna pilarna för angränsande kartor.


METAR-TAF: